createdAt,value
2017-12-02T00:00:49.807Z,203.70
2017-12-02T00:01:53.128Z,176.70
2017-12-02T00:02:55.717Z,295.75
2017-12-02T00:03:58.260Z,152.45
2017-12-02T00:05:00.867Z,189.48
2017-12-02T00:06:04.390Z,173.25
2017-12-02T00:07:06.990Z,155.30
2017-12-02T00:08:10.544Z,180.60
2017-12-02T00:09:13.846Z,189.60
2017-12-02T00:10:16.921Z,140.75
2017-12-02T00:11:19.499Z,138.45
2017-12-02T00:12:22.039Z,110.88
2017-12-02T00:13:25.342Z,205.75
2017-12-02T00:14:27.891Z,139.30
2017-12-02T00:15:31.205Z,128.43
2017-12-02T00:16:33.869Z,140.90
2017-12-02T00:17:36.456Z,104.60
2017-12-02T00:18:39.016Z,142.73
2017-12-02T00:19:41.558Z,138.15
2017-12-02T00:20:44.139Z,127.00
2017-12-02T00:21:46.679Z,145.23
2017-12-02T00:22:49.278Z,191.82
2017-12-02T00:23:51.832Z,283.38
2017-12-02T00:24:55.403Z,230.75
2017-12-02T00:25:58.713Z,193.02
2017-12-02T00:27:01.286Z,182.10
2017-12-02T00:28:03.852Z,128.48
2017-12-02T00:29:06.418Z,220.70
2017-12-02T00:30:08.957Z,243.37
2017-12-02T00:31:12.275Z,215.15
2017-12-02T00:32:14.853Z,166.00
2017-12-02T00:33:17.416Z,152.38
2017-12-02T00:34:19.958Z,209.25
2017-12-02T00:35:22.498Z,149.68
2017-12-02T00:36:25.851Z,152.60
2017-12-02T00:37:28.408Z,132.85
2017-12-02T00:38:30.948Z,153.30
2017-12-02T00:39:34.643Z,107.45
2017-12-02T00:40:37.208Z,102.25
2017-12-02T00:41:39.769Z,101.38
2017-12-02T00:42:42.319Z,107.90
2017-12-02T00:43:46.328Z,130.15
2017-12-02T00:44:49.634Z,94.35
2017-12-02T00:45:52.172Z,194.13
2017-12-02T00:46:55.529Z,129.65
2017-12-02T00:47:58.878Z,214.65
2017-12-02T00:49:02.252Z,216.60
2017-12-02T00:50:04.832Z,280.30
2017-12-02T00:51:07.395Z,100.47
2017-12-02T00:52:11.001Z,152.12
2017-12-02T00:53:13.559Z,124.90
2017-12-02T00:54:17.116Z,215.12
2017-12-02T00:55:20.418Z,273.13
2017-12-02T00:56:23.173Z,161.70
2017-12-02T00:57:25.757Z,134.35
2017-12-02T00:58:29.360Z,225.95
2017-12-02T00:59:31.935Z,171.00
2017-12-02T01:00:34.461Z,172.80
2017-12-02T01:01:37.670Z,246.43
2017-12-02T01:02:40.242Z,213.68
2017-12-02T01:03:42.813Z,288.23
2017-12-02T01:04:45.359Z,146.80
2017-12-02T01:05:48.648Z,144.30
2017-12-02T01:06:51.196Z,200.95
2017-12-02T01:07:53.787Z,140.48
2017-12-02T01:08:56.328Z,124.53
2017-12-02T01:09:59.653Z,145.87
2017-12-02T01:11:02.198Z,182.85
2017-12-02T01:12:04.747Z,196.35
2017-12-02T01:13:07.329Z,213.25
2017-12-02T01:14:09.867Z,127.93
2017-12-02T01:15:13.393Z,228.52
2017-12-02T01:16:16.061Z,244.52
2017-12-02T01:17:19.435Z,326.62
2017-12-02T01:18:22.007Z,101.22
2017-12-02T01:19:24.559Z,150.75
2017-12-02T01:20:27.102Z,108.55
2017-12-02T01:21:29.707Z,175.85
2017-12-02T01:22:32.244Z,160.93
2017-12-02T01:23:35.614Z,96.35
2017-12-02T01:24:38.141Z,124.15
2017-12-02T01:25:40.991Z,136.23
2017-12-02T01:26:43.524Z,164.15
2017-12-02T01:27:47.167Z,95.22
2017-12-02T01:28:49.721Z,103.72
2017-12-02T01:29:52.267Z,155.52
2017-12-02T01:30:55.578Z,141.15
2017-12-02T01:31:58.118Z,178.27
2017-12-02T01:33:01.434Z,147.48
2017-12-02T01:34:03.982Z,179.87
2017-12-02T01:35:06.537Z,169.68
2017-12-02T01:36:09.882Z,156.87
2017-12-02T01:37:12.435Z,109.32
2017-12-02T01:38:14.971Z,113.88
2017-12-02T01:39:17.502Z,170.85
2017-12-02T01:40:20.049Z,162.27
2017-12-02T01:41:23.409Z,145.07
2017-12-02T01:42:25.985Z,109.85
2017-12-02T01:43:29.813Z,106.20
2017-12-02T01:44:32.378Z,162.18
2017-12-02T01:45:34.925Z,81.03
2017-12-02T01:46:37.910Z,123.80
2017-12-02T01:47:40.970Z,111.22
2017-12-02T01:48:44.520Z,120.65
2017-12-02T01:49:47.825Z,139.00
2017-12-02T01:50:50.558Z,185.07
2017-12-02T01:51:53.875Z,177.05
2017-12-02T01:52:56.462Z,165.82
2017-12-02T01:53:59.011Z,136.82
2017-12-02T01:55:01.557Z,149.38
2017-12-02T01:56:04.151Z,111.97
2017-12-02T01:57:06.689Z,134.02
2017-12-02T01:58:10.103Z,183.43
2017-12-02T01:59:12.628Z,167.60
2017-12-02T02:00:15.947Z,120.95
2017-12-02T02:01:18.504Z,155.87
2017-12-02T02:02:21.804Z,178.18
2017-12-02T02:03:24.387Z,142.82
2017-12-02T02:04:26.921Z,157.10
2017-12-02T02:05:29.508Z,141.65
2017-12-02T02:06:32.063Z,165.43
2017-12-02T02:07:34.639Z,181.40
2017-12-02T02:08:37.535Z,151.43
2017-12-02T02:09:40.080Z,207.68
2017-12-02T02:10:42.620Z,171.70
2017-12-02T02:11:45.928Z,213.65
2017-12-02T02:12:48.468Z,197.10
2017-12-02T02:13:51.782Z,179.23
2017-12-02T02:14:54.303Z,214.12
2017-12-02T02:15:57.732Z,246.87
2017-12-02T02:17:00.276Z,188.82
2017-12-02T02:18:03.567Z,178.82
2017-12-02T02:19:06.896Z,240.30
2017-12-02T02:20:09.421Z,187.75
2017-12-02T02:21:11.995Z,170.68
2017-12-02T02:22:14.542Z,84.07
2017-12-02T02:23:18.710Z,185.80
2017-12-02T02:24:21.448Z,171.77
2017-12-02T02:25:23.994Z,177.93
2017-12-02T02:26:26.680Z,188.00
2017-12-02T02:27:29.238Z,151.37
2017-12-02T02:28:31.796Z,194.43
2017-12-02T02:29:34.353Z,169.10
2017-12-02T02:30:38.726Z,218.88
2017-12-02T02:31:41.252Z,212.65
2017-12-02T02:32:43.843Z,183.62
2017-12-02T02:33:46.756Z,174.35
2017-12-02T02:34:49.315Z,153.45
2017-12-02T02:35:51.846Z,184.35
2017-12-02T02:36:54.391Z,128.12
2017-12-02T02:37:56.942Z,137.10
2017-12-02T02:39:00.433Z,118.97
2017-12-02T02:40:02.982Z,205.68
2017-12-02T02:41:06.312Z,181.43
2017-12-02T02:42:08.864Z,99.03
2017-12-02T02:43:11.413Z,99.70
2017-12-02T02:57:18.984Z,88.78
2017-12-02T02:58:22.287Z,77.22
2017-12-02T02:59:24.836Z,183.20
2017-12-02T03:00:28.125Z,133.98
2017-12-02T03:01:30.671Z,113.25
2017-12-02T03:02:34.288Z,128.73
2017-12-02T03:03:36.821Z,183.10
2017-12-02T03:04:40.142Z,211.87
2017-12-02T03:05:42.689Z,204.20
2017-12-02T03:06:46.099Z,177.60
2017-12-02T03:07:48.630Z,239.98
2017-12-02T03:08:51.175Z,174.07
2017-12-02T03:09:54.142Z,174.70
2017-12-02T03:10:56.677Z,122.47
2017-12-02T03:11:59.208Z,178.07
2017-12-02T03:13:03.629Z,122.85
2017-12-02T03:14:06.969Z,217.10
2017-12-02T03:15:09.504Z,176.57
2017-12-02T03:16:12.071Z,221.52
2017-12-02T03:17:14.599Z,273.67
2017-12-02T03:18:17.134Z,211.00
2017-12-02T03:19:19.705Z,262.23
2017-12-02T03:20:22.236Z,172.02
2017-12-02T03:21:24.769Z,211.93
2017-12-02T03:22:28.088Z,144.52
2017-12-02T03:23:30.623Z,292.92
2017-12-02T03:24:34.776Z,177.50
2017-12-02T03:25:37.327Z,120.87
2017-12-02T03:26:39.888Z,151.52
2017-12-02T03:27:42.433Z,166.23
2017-12-02T03:28:45.773Z,188.77
2017-12-02T03:29:48.318Z,124.50
2017-12-02T03:30:50.861Z,108.18
2017-12-02T03:31:53.401Z,100.78
2017-12-02T03:32:55.939Z,163.80
2017-12-02T03:33:58.476Z,123.68
2017-12-02T03:35:01.014Z,163.23
2017-12-02T03:36:05.431Z,111.88
2017-12-02T03:37:08.792Z,166.00
2017-12-02T03:38:12.096Z,140.27
2017-12-02T03:39:15.393Z,130.20
2017-12-02T03:40:17.966Z,151.68
2017-12-02T03:41:20.517Z,188.75
2017-12-02T03:42:23.821Z,246.25
2017-12-02T03:43:26.365Z,195.30
2017-12-02T03:44:29.662Z,161.57
2017-12-02T03:45:32.222Z,96.22
2017-12-02T03:46:35.524Z,177.70
2017-12-02T03:47:38.051Z,223.15
2017-12-02T03:48:41.363Z,177.80
2017-12-02T03:49:43.917Z,140.37
2017-12-02T03:50:46.498Z,183.27
2017-12-02T03:51:49.012Z,203.23
2017-12-02T03:52:51.616Z,189.10
2017-12-02T03:53:54.924Z,86.00
2017-12-02T03:54:57.469Z,127.20
2017-12-02T03:56:00.774Z,272.37
2017-12-02T03:57:03.452Z,135.80
2017-12-02T03:58:06.119Z,93.22
2017-12-02T03:59:08.643Z,139.80
2017-12-02T04:13:11.262Z,97.10
2017-12-02T04:14:13.845Z,106.72
2017-12-02T04:15:17.147Z,213.10
2017-12-02T04:16:20.452Z,148.65
2017-12-02T04:17:24.377Z,233.70
2017-12-02T04:18:26.959Z,94.43
2017-12-02T04:19:29.495Z,79.57
2017-12-02T04:20:32.056Z,84.13
2017-12-02T04:21:35.115Z,219.27
2017-12-02T04:22:39.448Z,152.32
2017-12-02T04:23:41.996Z,177.10
2017-12-02T04:24:45.332Z,221.73
2017-12-02T04:25:47.865Z,146.07
2017-12-02T04:26:50.403Z,93.90
2017-12-02T04:27:53.700Z,157.30
2017-12-02T04:28:57.008Z,190.68
2017-12-02T04:29:59.548Z,142.25
2017-12-02T04:31:02.854Z,129.98
2017-12-02T04:32:05.404Z,97.93
2017-12-02T04:33:07.990Z,213.40
2017-12-02T04:34:10.563Z,115.10
2017-12-02T04:35:13.122Z,163.77
2017-12-02T04:36:15.674Z,252.87
2017-12-02T04:37:18.339Z,196.70
2017-12-02T04:38:21.638Z,141.50
2017-12-02T04:39:24.196Z,106.05
2017-12-02T04:40:26.727Z,168.52
2017-12-02T04:41:29.279Z,113.18
2017-12-02T04:42:31.802Z,136.98
2017-12-02T04:43:34.374Z,145.55
2017-12-02T04:44:36.924Z,130.55
2017-12-02T04:45:40.281Z,72.47
2017-12-02T04:46:42.820Z,60.33
2017-12-02T04:47:45.381Z,113.30
2017-12-02T04:48:47.908Z,83.87
2017-12-02T04:49:51.230Z,92.25
2017-12-02T04:50:53.796Z,92.70
2017-12-02T04:51:56.369Z,110.00
2017-12-02T04:52:58.943Z,136.68
2017-12-02T04:54:01.490Z,84.95
2017-12-02T04:55:04.056Z,99.40
2017-12-02T04:56:06.630Z,126.93
2017-12-02T04:57:09.157Z,50.55
2017-12-02T04:58:12.975Z,78.93
2017-12-02T04:59:15.558Z,71.87
2017-12-02T05:00:18.107Z,112.85
2017-12-02T05:01:20.666Z,125.15
2017-12-02T05:02:23.229Z,84.22
2017-12-02T05:03:25.825Z,126.70
2017-12-02T05:04:28.371Z,108.70
2017-12-02T05:05:30.907Z,66.90
2017-12-02T05:06:33.456Z,131.90
2017-12-02T05:07:36.010Z,72.57
2017-12-02T05:08:38.557Z,126.60
2017-12-02T05:09:41.102Z,86.55
2017-12-02T05:10:43.659Z,102.80
2017-12-02T05:11:46.972Z,80.47
2017-12-02T05:12:49.515Z,97.30
2017-12-02T05:13:52.853Z,132.18
2017-12-02T05:14:55.371Z,109.15
2017-12-02T05:15:57.898Z,114.50
2017-12-02T05:17:00.444Z,114.10
2017-12-02T05:18:02.983Z,114.10
2017-12-02T05:19:05.524Z,104.82
2017-12-02T05:20:08.112Z,165.85
2017-12-02T05:21:10.658Z,102.22
2017-12-02T05:22:13.209Z,68.93
2017-12-02T05:23:17.528Z,82.93
2017-12-02T05:24:20.832Z,111.40
2017-12-02T05:25:23.398Z,105.20
2017-12-02T05:26:25.929Z,138.30
2017-12-02T05:27:28.488Z,105.30
2017-12-02T05:28:31.031Z,112.97
2017-12-02T05:29:35.596Z,76.82
2017-12-02T05:30:38.146Z,76.65
2017-12-02T05:31:41.488Z,85.75
2017-12-02T05:32:44.057Z,109.45
2017-12-02T05:33:46.783Z,105.47
2017-12-02T05:34:50.116Z,98.50
2017-12-02T05:35:52.697Z,54.33
2017-12-02T05:36:55.235Z,75.97
2017-12-02T05:37:57.769Z,63.25
2017-12-02T05:39:00.300Z,59.70
2017-12-02T05:40:03.108Z,95.28
2017-12-02T05:41:05.688Z,100.65
2017-12-02T05:42:08.304Z,87.05
2017-12-02T05:43:10.862Z,89.28
2017-12-02T05:44:13.404Z,65.03
2017-12-02T05:45:15.959Z,70.62
2017-12-02T05:46:18.522Z,75.93
2017-12-02T05:47:21.060Z,77.28
2017-12-02T05:48:25.411Z,122.35
2017-12-02T05:49:27.945Z,63.22
2017-12-02T05:50:31.285Z,112.43
2017-12-02T05:51:33.819Z,71.05
2017-12-02T05:52:36.348Z,78.47
2017-12-02T05:53:38.888Z,84.50
2017-12-02T05:54:41.438Z,70.45
2017-12-02T05:55:43.979Z,50.80
2017-12-02T05:56:47.051Z,74.22
2017-12-02T05:57:49.580Z,69.53
2017-12-02T05:58:53.091Z,79.32
2017-12-02T05:59:56.409Z,64.93
2017-12-02T06:00:58.963Z,80.60
2017-12-02T06:02:01.505Z,85.97
2017-12-02T06:03:04.904Z,85.62
2017-12-02T06:04:08.196Z,60.35
2017-12-02T06:05:10.761Z,49.42
2017-12-02T06:06:13.329Z,45.83
2017-12-02T06:07:15.992Z,52.28
2017-12-02T06:08:19.333Z,63.67
2017-12-02T06:09:21.956Z,59.58
2017-12-02T06:52:40.605Z,56.03
2017-12-02T06:53:43.139Z,43.00
2017-12-02T06:54:45.700Z,54.92
2017-12-02T06:55:48.996Z,57.17
2017-12-02T06:56:51.752Z,74.40
2017-12-02T06:57:55.066Z,51.47
2017-12-02T06:58:57.597Z,70.97
2017-12-02T07:00:05.090Z,79.35
2017-12-02T07:01:08.422Z,82.50
2017-12-02T07:02:11.111Z,54.40
2017-12-02T07:03:17.213Z,71.50
2017-12-02T07:04:20.648Z,56.67
2017-12-02T07:05:24.438Z,64.65
2017-12-02T07:06:28.179Z,59.95
2017-12-02T07:07:32.281Z,52.13
2017-12-02T07:08:34.809Z,50.08
2017-12-02T07:09:37.754Z,62.85
2017-12-02T07:10:40.303Z,66.60
2017-12-02T07:11:43.879Z,45.58
2017-12-02T07:12:48.422Z,49.33
2017-12-02T07:13:50.960Z,46.65
2017-12-02T07:14:58.921Z,50.55
2017-12-02T07:16:06.667Z,45.40
2017-12-02T07:17:10.134Z,49.60
2017-12-02T07:18:13.734Z,39.30
2017-12-02T07:19:20.624Z,54.25
2017-12-02T07:20:25.653Z,58.55
2017-12-02T07:21:31.108Z,50.70
2017-12-02T07:22:38.150Z,42.00
2017-12-02T07:23:43.687Z,52.47
2017-12-02T07:24:48.586Z,63.83
2017-12-02T07:25:52.184Z,100.70
2017-12-02T07:26:55.373Z,52.50
2017-12-02T07:27:57.914Z,83.55
2017-12-02T07:29:01.233Z,52.90
2017-12-02T07:30:04.637Z,41.20
2017-12-02T07:31:09.973Z,48.63
2017-12-02T07:32:14.135Z,63.50
2017-12-02T07:33:17.831Z,60.65
2017-12-02T07:34:22.456Z,53.03
2017-12-02T07:35:25.812Z,48.80
2017-12-02T07:36:33.156Z,40.95
2017-12-02T07:37:37.682Z,38.72
2017-12-02T07:38:40.283Z,59.17
2017-12-02T07:39:42.918Z,46.90
2017-12-02T07:40:46.328Z,36.85
2017-12-02T07:41:48.884Z,42.13
2017-12-02T07:42:52.212Z,41.58
2017-12-02T07:43:54.964Z,43.55
2017-12-02T07:44:57.544Z,60.03
2017-12-02T07:46:00.076Z,118.85
2017-12-02T07:47:03.382Z,60.50
2017-12-02T07:48:05.932Z,52.80
2017-12-02T07:49:09.269Z,39.40
2017-12-02T07:50:11.952Z,50.75
2017-12-02T07:51:14.998Z,50.53
2017-12-02T07:52:17.555Z,44.75
2017-12-02T07:53:20.087Z,53.78
2017-12-02T07:54:23.380Z,54.28
2017-12-02T07:55:26.766Z,51.45
2017-12-02T07:56:30.112Z,59.90
2017-12-02T07:57:32.647Z,55.72
2017-12-02T07:58:35.204Z,53.67
2017-12-02T07:59:37.736Z,62.05
2017-12-02T08:00:42.122Z,49.65
2017-12-02T08:01:45.440Z,48.22
2017-12-02T08:02:48.928Z,60.05
2017-12-02T08:03:52.251Z,43.47
2017-12-02T08:04:55.838Z,40.80
2017-12-02T08:05:58.385Z,45.45
2017-12-02T08:07:00.933Z,55.15
2017-12-02T08:08:03.523Z,56.33
2017-12-02T08:09:06.067Z,55.33
2017-12-02T08:10:09.415Z,77.32
2017-12-02T08:11:12.036Z,73.20
2017-12-02T08:12:14.589Z,55.03
2017-12-02T08:13:17.896Z,86.40
2017-12-02T08:14:20.422Z,80.07
2017-12-02T08:15:22.998Z,49.22
2017-12-02T08:16:27.014Z,61.05
2017-12-02T08:17:30.314Z,66.57
2017-12-02T08:18:33.865Z,46.58
2017-12-02T08:19:37.190Z,40.58
2017-12-02T08:20:40.032Z,42.35
2017-12-02T08:21:44.096Z,30.60
2017-12-02T08:22:46.680Z,35.15
2017-12-02T08:23:49.237Z,44.00
2017-12-02T08:24:51.763Z,44.33
2017-12-02T08:25:55.238Z,51.50
2017-12-02T08:26:58.552Z,51.97
2017-12-02T08:28:01.138Z,69.03
2017-12-02T08:29:03.721Z,57.50
2017-12-02T08:30:08.409Z,78.85
2017-12-02T08:31:10.958Z,73.85
2017-12-02T08:32:13.646Z,81.97
2017-12-02T08:33:16.178Z,47.40
2017-12-02T08:34:19.521Z,51.08
2017-12-02T08:35:22.060Z,46.60
2017-12-02T08:36:24.638Z,101.25
2017-12-02T08:37:27.186Z,77.10
2017-12-02T08:38:29.740Z,52.70
2017-12-02T08:39:32.336Z,31.42
2017-12-02T08:40:35.905Z,60.03
2017-12-02T08:41:39.219Z,53.33
2017-12-02T08:42:41.781Z,52.17
2017-12-02T08:43:44.329Z,48.55
2017-12-02T08:44:47.306Z,37.60
2017-12-02T08:45:49.840Z,36.95
2017-12-02T08:46:53.125Z,53.42
2017-12-02T08:47:56.514Z,36.63
2017-12-02T08:49:00.861Z,53.87
2017-12-02T08:50:03.530Z,63.33
2017-12-02T08:51:06.064Z,50.50
2017-12-02T08:52:08.855Z,29.92
2017-12-02T08:53:11.542Z,28.52
2017-12-02T08:54:14.253Z,46.65
2017-12-02T08:55:17.586Z,33.70
2017-12-02T08:56:20.127Z,41.70
2017-12-02T08:57:22.737Z,32.28
2017-12-02T08:58:25.265Z,30.85
2017-12-02T08:59:28.767Z,34.75
2017-12-02T09:00:31.304Z,30.00
2017-12-02T09:01:34.646Z,51.10
2017-12-02T09:02:37.227Z,42.67
2017-12-02T09:03:39.814Z,29.40
2017-12-02T09:04:42.352Z,49.65
2017-12-02T09:05:44.894Z,34.72
2017-12-02T09:06:47.472Z,51.90
2017-12-02T09:07:51.050Z,36.60
2017-12-02T09:08:53.603Z,104.95
2017-12-02T09:09:56.283Z,66.70
2017-12-02T09:10:58.860Z,52.67
2017-12-02T09:12:01.404Z,83.18
2017-12-02T09:13:03.940Z,53.60
2017-12-02T09:14:06.481Z,37.90
2017-12-02T09:15:09.049Z,40.97
2017-12-02T09:16:11.661Z,45.97
2017-12-02T09:17:14.974Z,29.90
2017-12-02T09:18:18.053Z,52.38
2017-12-02T09:19:20.730Z,35.97
2017-12-02T09:20:23.275Z,28.92
2017-12-02T09:21:25.849Z,33.35
2017-12-02T09:22:30.146Z,31.80
2017-12-02T09:23:33.430Z,33.10
2017-12-02T09:24:35.988Z,27.40
2017-12-02T09:25:39.285Z,30.02
2017-12-02T09:26:42.900Z,38.70
2017-12-02T09:27:45.557Z,36.10
2017-12-02T09:28:48.271Z,46.22
2017-12-02T09:29:51.676Z,47.67
2017-12-02T09:30:56.021Z,30.67
2017-12-02T09:31:58.587Z,65.65
2017-12-02T09:33:01.216Z,30.20
2017-12-02T09:34:04.539Z,63.35
2017-12-02T09:35:07.103Z,59.88
2017-12-02T09:36:09.676Z,62.47
2017-12-02T09:37:12.238Z,63.78
2017-12-02T09:38:14.921Z,49.38
2017-12-02T09:39:17.471Z,57.45
2017-12-02T09:40:20.054Z,35.38
2017-12-02T09:41:23.019Z,36.97
2017-12-02T09:42:25.584Z,31.40
2017-12-02T09:43:29.489Z,32.38
2017-12-02T09:44:32.046Z,32.47
2017-12-02T09:45:34.634Z,32.08
2017-12-02T09:46:38.102Z,39.80
2017-12-02T09:47:40.641Z,30.55
2017-12-02T09:48:43.952Z,37.58
2017-12-02T09:49:46.566Z,37.38
2017-12-02T09:50:49.128Z,52.17
2017-12-02T09:51:51.672Z,34.78
2017-12-02T09:52:54.321Z,37.78
2017-12-02T09:53:56.993Z,35.90
2017-12-02T09:54:59.570Z,27.55
2017-12-02T09:56:02.159Z,31.73
2017-12-02T09:57:04.697Z,37.28
2017-12-02T09:58:08.386Z,29.23
2017-12-02T10:09:01.206Z,31.33
2017-12-02T10:10:03.778Z,26.70
2017-12-02T10:11:06.331Z,27.00
2017-12-02T10:12:10.949Z,28.85
2017-12-02T10:13:13.512Z,31.17
2017-12-02T10:14:17.364Z,28.30
2017-12-02T10:15:19.933Z,27.42
2017-12-02T10:16:22.608Z,29.80
2017-12-02T10:17:25.985Z,34.53
2017-12-02T10:18:28.538Z,25.40
2017-12-02T10:19:31.977Z,27.15
2017-12-02T10:20:34.658Z,26.92
2017-12-02T10:21:37.209Z,26.80
2017-12-02T10:22:40.700Z,32.35
2017-12-02T10:23:43.242Z,29.12
2017-12-02T10:24:46.586Z,25.42
2017-12-02T10:25:49.148Z,29.95
2017-12-02T10:26:52.702Z,28.60
2017-12-02T10:27:55.257Z,27.52
2017-12-02T10:28:57.824Z,37.85
2017-12-02T10:30:01.161Z,27.40
2017-12-02T10:31:03.761Z,29.98
2017-12-02T10:32:06.327Z,28.25
2017-12-02T10:33:09.671Z,29.98
2017-12-02T10:34:12.404Z,32.35
2017-12-02T10:35:15.814Z,29.95
2017-12-02T10:36:18.477Z,31.33
2017-12-02T10:37:21.046Z,27.80
2017-12-02T10:38:23.693Z,26.08
2017-12-02T10:39:27.017Z,26.77
2017-12-02T10:40:29.563Z,27.60
2017-12-02T10:41:32.131Z,36.17
2017-12-02T10:42:34.709Z,30.73
2017-12-02T10:43:38.516Z,26.75
2017-12-02T10:44:41.062Z,37.38
2017-12-02T10:45:43.635Z,30.17
2017-12-02T10:46:46.207Z,26.42
2017-12-02T10:47:48.775Z,26.83
2017-12-02T10:48:51.329Z,28.83
2017-12-02T10:49:53.864Z,29.33
2017-12-02T10:50:57.180Z,37.05
2017-12-02T10:51:59.719Z,26.77
2017-12-02T10:53:03.132Z,30.27
2017-12-02T10:54:09.783Z,30.25
2017-12-02T10:55:12.334Z,24.60
2017-12-02T10:56:15.747Z,25.25
2017-12-02T10:57:18.310Z,27.77
2017-12-02T10:58:20.939Z,26.70
2017-12-02T10:59:25.004Z,33.67
2017-12-02T11:00:29.421Z,27.52
2017-12-02T11:01:32.003Z,26.23
2017-12-02T11:02:34.662Z,28.77
2017-12-02T11:03:38.140Z,24.30
2017-12-02T11:04:41.516Z,43.75
2017-12-02T11:05:44.076Z,26.80
2017-12-02T11:06:47.064Z,31.40
2017-12-02T11:07:49.721Z,27.75
2017-12-02T11:08:53.092Z,31.25
2017-12-02T11:09:55.624Z,30.23
2017-12-02T11:10:58.956Z,36.08
2017-12-02T11:12:01.529Z,27.73
2017-12-02T11:13:05.100Z,30.98
2017-12-02T11:14:07.685Z,36.58
2017-12-02T11:15:10.244Z,24.25
2017-12-02T11:16:13.148Z,48.53
2017-12-02T11:17:15.682Z,43.92
2017-12-02T11:18:18.278Z,36.90
2017-12-02T11:19:20.840Z,36.88
2017-12-02T11:20:23.389Z,24.33
2017-12-02T11:21:25.968Z,30.48
2017-12-02T11:22:28.524Z,28.35
2017-12-02T11:23:31.101Z,29.92
2017-12-02T11:24:34.860Z,27.50
2017-12-02T11:25:39.215Z,36.05
2017-12-02T11:26:41.872Z,34.78
2017-12-02T11:27:45.453Z,27.60
2017-12-02T11:28:48.139Z,26.62
2017-12-02T11:29:50.761Z,51.28
2017-12-02T11:30:54.088Z,30.15
2017-12-02T11:31:57.675Z,30.67
2017-12-02T11:33:00.221Z,29.27
2017-12-02T11:34:02.822Z,32.83
2017-12-02T11:35:05.739Z,32.72
2017-12-02T11:36:09.629Z,27.17
2017-12-02T11:37:12.254Z,23.30
2017-12-02T11:38:16.055Z,29.80
2017-12-02T11:39:18.911Z,29.73
2017-12-02T11:40:21.793Z,40.53
2017-12-02T11:41:25.047Z,27.08
2017-12-02T11:42:27.697Z,46.37
2017-12-02T11:43:31.117Z,44.50
2017-12-02T11:44:33.904Z,38.17
2017-12-02T11:45:36.513Z,40.42
2017-12-02T11:46:41.793Z,32.60
2017-12-02T11:47:44.426Z,30.92
2017-12-02T11:48:48.166Z,53.53
2017-12-02T11:49:50.720Z,36.40
2017-12-02T11:50:54.210Z,35.25
2017-12-02T11:51:56.788Z,39.60
2017-12-02T11:52:59.355Z,29.60
2017-12-02T11:54:01.966Z,31.67
2017-12-02T11:55:04.581Z,39.20
2017-12-02T11:56:07.120Z,31.08
2017-12-02T11:57:11.501Z,29.77
2017-12-02T11:58:14.200Z,29.83
2017-12-02T11:59:17.493Z,30.75
2017-12-02T12:00:20.823Z,29.67
2017-12-02T12:01:24.376Z,27.50
2017-12-02T12:02:26.982Z,34.13
2017-12-02T12:03:29.577Z,30.50
2017-12-02T12:04:32.132Z,33.83
2017-12-02T12:05:34.674Z,27.62
2017-12-02T12:06:37.253Z,29.45
2017-12-02T12:07:39.804Z,26.77
2017-12-02T12:08:42.368Z,31.25
2017-12-02T12:09:47.195Z,28.48
2017-12-02T12:10:49.740Z,31.17
2017-12-02T12:11:52.316Z,27.40
2017-12-02T12:12:54.931Z,28.95
2017-12-02T12:13:57.491Z,33.53
2017-12-02T12:15:00.020Z,30.17
2017-12-02T12:16:09.590Z,28.00
2017-12-02T12:17:12.144Z,21.58
2017-12-02T12:18:15.862Z,27.30
2017-12-02T12:19:19.210Z,28.42
2017-12-02T12:20:21.815Z,27.80
2017-12-02T12:21:24.534Z,26.62
2017-12-02T12:22:27.193Z,22.85
2017-12-02T12:23:29.853Z,26.65
2017-12-02T12:24:32.543Z,34.25
2017-12-02T12:25:35.074Z,33.10
2017-12-02T12:26:39.401Z,28.38
2017-12-02T12:27:41.951Z,26.73
2017-12-02T12:28:45.389Z,33.92
2017-12-02T12:29:48.441Z,23.55
2017-12-02T12:30:50.989Z,24.80
2017-12-02T12:31:54.288Z,23.85
2017-12-02T12:32:56.815Z,25.98
2017-12-02T12:33:59.362Z,25.75
2017-12-02T12:35:02.545Z,28.12
2017-12-02T12:36:05.095Z,26.45
2017-12-02T12:37:07.637Z,23.85
2017-12-02T12:38:10.286Z,24.48
2017-12-02T12:39:14.590Z,22.48
2017-12-02T12:40:17.929Z,23.02
2017-12-02T12:41:20.492Z,26.45
2017-12-02T12:42:23.035Z,25.12
2017-12-02T12:43:25.576Z,27.35
2017-12-02T12:44:28.878Z,23.92
2017-12-02T12:45:32.576Z,25.12
2017-12-02T12:46:35.093Z,27.87
2017-12-02T12:47:40.176Z,29.67
2017-12-02T12:48:42.836Z,29.02
2017-12-02T12:49:45.432Z,26.83
2017-12-02T12:50:48.010Z,25.65
2017-12-02T12:51:50.551Z,26.62
2017-12-02T12:52:53.112Z,28.58
2017-12-02T12:53:55.673Z,26.67
2017-12-02T12:54:59.549Z,29.08
2017-12-02T12:56:02.172Z,26.73
2017-12-02T12:57:04.915Z,33.53
2017-12-02T12:58:07.469Z,33.95
2017-12-02T12:59:10.019Z,25.83
2017-12-02T13:00:14.342Z,31.12
2017-12-02T13:01:16.950Z,29.42
2017-12-02T13:02:19.566Z,29.58
2017-12-02T13:03:22.886Z,29.45
2017-12-02T13:04:26.457Z,30.67
2017-12-02T13:05:29.016Z,29.58
2017-12-02T13:06:31.597Z,27.02
2017-12-02T13:07:34.148Z,30.85
2017-12-02T13:08:36.810Z,33.17
2017-12-02T13:09:39.359Z,27.00
2017-12-02T13:10:43.991Z,31.92
2017-12-02T13:11:47.318Z,31.42
2017-12-02T13:12:51.112Z,42.65
2017-12-02T13:13:53.678Z,30.75
2017-12-02T13:14:56.220Z,36.60
2017-12-02T13:15:58.775Z,34.88
2017-12-02T13:17:02.077Z,33.85
2017-12-02T13:18:04.621Z,32.70
2017-12-02T13:19:07.956Z,32.17
2017-12-02T13:20:10.496Z,32.33
2017-12-02T13:21:13.384Z,34.15
2017-12-02T13:22:16.059Z,38.55
2017-12-02T13:23:19.419Z,33.25
2017-12-02T13:24:22.100Z,36.15
2017-12-02T13:25:24.636Z,38.63
2017-12-02T13:26:27.966Z,34.22
2017-12-02T13:27:31.778Z,35.95
2017-12-02T13:28:34.347Z,36.60
2017-12-02T13:29:37.987Z,28.75
2017-12-02T13:30:40.559Z,36.60
2017-12-02T13:31:45.094Z,40.80
2017-12-02T13:32:47.680Z,35.03
2017-12-02T13:33:50.202Z,33.10
2017-12-02T13:34:52.842Z,30.73
2017-12-02T13:35:55.394Z,30.88
2017-12-02T13:36:57.937Z,33.95
2017-12-02T13:38:01.543Z,29.05
2017-12-02T13:39:04.078Z,31.25
2017-12-02T13:40:07.709Z,30.33
2017-12-02T13:41:10.263Z,26.77
2017-12-02T13:42:12.812Z,32.78
2017-12-02T13:43:15.381Z,30.52
2017-12-02T13:44:18.009Z,28.83
2017-12-02T13:45:21.333Z,29.12
2017-12-02T13:46:23.886Z,31.12
2017-12-02T13:47:27.193Z,27.67
2017-12-02T13:48:30.734Z,31.62
2017-12-02T13:49:34.155Z,29.35
2017-12-02T13:50:36.708Z,26.35
2017-12-02T13:51:39.293Z,25.33
2017-12-02T13:52:42.894Z,29.00
2017-12-02T13:53:45.432Z,29.40
2017-12-02T13:54:48.019Z,28.40
2017-12-02T13:55:50.541Z,35.75
2017-12-02T13:56:53.959Z,33.92
2017-12-02T13:57:56.569Z,31.10
2017-12-02T13:59:00.078Z,30.70
2017-12-02T14:00:03.408Z,31.08
2017-12-02T14:01:05.953Z,30.83
2017-12-02T14:02:09.268Z,29.15
2017-12-02T14:03:11.814Z,34.00
2017-12-02T14:04:14.346Z,34.35
2017-12-02T14:05:16.884Z,30.10
2017-12-02T14:06:19.447Z,29.77
2017-12-02T14:07:22.062Z,28.00
2017-12-02T14:08:24.647Z,31.58
2017-12-02T14:09:27.261Z,28.87
2017-12-02T14:10:29.910Z,25.65
2017-12-02T14:11:33.488Z,30.70
2017-12-02T14:12:36.047Z,23.73
2017-12-02T14:13:39.361Z,24.20
2017-12-02T14:14:42.417Z,26.42
2017-12-02T14:15:45.735Z,24.70
2017-12-02T14:16:48.303Z,24.17
2017-12-02T14:17:50.876Z,24.45
2017-12-02T14:18:53.508Z,28.70
2017-12-02T14:19:56.818Z,30.92
2017-12-02T14:20:59.363Z,30.15
2017-12-02T14:22:02.905Z,31.35
2017-12-02T14:23:05.498Z,27.60
2017-12-02T14:24:08.074Z,23.02
2017-12-02T14:25:11.426Z,31.80
2017-12-02T14:26:13.965Z,29.95
2017-12-02T14:27:16.530Z,26.00
2017-12-02T14:28:19.259Z,31.55
2017-12-02T14:29:22.585Z,24.52
2017-12-02T14:30:25.126Z,29.42
2017-12-02T14:31:27.690Z,28.98
2017-12-02T14:32:31.083Z,30.30
2017-12-02T14:33:33.627Z,25.17
2017-12-02T14:34:36.998Z,27.65
2017-12-02T14:35:39.581Z,30.52
2017-12-02T14:36:43.012Z,29.70
2017-12-02T14:37:45.582Z,28.87
2017-12-02T14:38:48.573Z,32.30
2017-12-02T14:39:51.120Z,29.95
2017-12-02T14:40:53.683Z,24.95